Time;durP1;ratioP1;P1;durP2;ratioP2;P2;SDS_P1;SDS_P2;PMS_P1;PMS_P2;Temp;Humidity;BMP_temperature;BMP_pressure;BME280_temperature;BME280_humidity;BME280_pressure;Samples;Min_cycle;Max_cycle;Signal;HPM_P1;HPM_P2
2024/01/30 00:00:49;;;;;;;1.92;0.30;;;;;;;;;;5004431;28;20091;-42
2024/01/30 00:03:20;;;;;;;2.47;0.30;;;;;;;;;;5031581;28;20054;-42
2024/01/30 00:05:52;;;;;;;3.15;0.45;;;;;;;;;;5018826;28;20043;-41
2024/01/30 00:08:23;;;;;;;4.87;0.60;;;;;;;;;;5018595;28;20045;-41
2024/01/30 00:10:51;;;;;;;4.10;0.40;;;;;;;;;;5005787;28;20537;-41
2024/01/30 00:13:20;;;;;;;3.78;0.55;;;;;;;;;;5025496;28;20685;-42
2024/01/30 00:15:49;;;;;;;2.90;0.40;;;;;;;;;;5018169;28;20044;-41
2024/01/30 00:18:18;;;;;;;4.35;0.50;;;;;;;;;;5021768;28;21612;-41
2024/01/30 00:20:46;;;;;;;3.77;0.40;;;;;;;;;;5031475;28;20045;-41
2024/01/30 00:23:14;;;;;;;2.85;0.40;;;;;;;;;;5035241;28;20037;-43
2024/01/30 00:25:42;;;;;;;2.75;0.40;;;;;;;;;;5020054;28;20048;-42
2024/01/30 00:28:10;;;;;;;2.63;0.20;;;;;;;;;;4834210;28;20521;-42
2024/01/30 00:30:40;;;;;;;2.13;0.30;;;;;;;;;;5007795;28;20051;-41
2024/01/30 00:33:09;;;;;;;3.77;0.40;;;;;;;;;;5017381;28;20147;-41
2024/01/30 00:35:36;;;;;;;4.32;0.40;;;;;;;;;;5027401;28;20563;-42
2024/01/30 00:38:04;;;;;;;6.45;0.43;;;;;;;;;;5034692;28;20040;-43
2024/01/30 00:40:32;;;;;;;3.60;0.75;;;;;;;;;;5020684;28;20102;-43
2024/01/30 00:43:00;;;;;;;2.25;0.30;;;;;;;;;;5004694;28;20037;-40
2024/01/30 00:45:27;;;;;;;5.43;0.90;;;;;;;;;;5023577;28;20577;-41
2024/01/30 00:47:56;;;;;;;3.35;0.40;;;;;;;;;;5026910;28;20044;-41
2024/01/30 00:50:24;;;;;;;6.35;0.85;;;;;;;;;;5021862;28;20049;-43
2024/01/30 00:52:52;;;;;;;4.53;0.70;;;;;;;;;;5016766;28;20090;-43
2024/01/30 00:55:20;;;;;;;5.55;0.63;;;;;;;;;;5044527;28;24529;-43
2024/01/30 00:57:48;;;;;;;3.80;0.50;;;;;;;;;;5005588;28;20041;-41
2024/01/30 01:00:16;;;;;;;5.55;0.93;;;;;;;;;;5027024;28;20141;-43
2024/01/30 01:02:45;;;;;;;3.40;0.70;;;;;;;;;;5014590;28;20413;-42
2024/01/30 01:05:14;;;;;;;6.05;0.40;;;;;;;;;;5033284;28;20051;-43
2024/01/30 01:07:42;;;;;;;8.60;0.80;;;;;;;;;;5019401;28;20040;-42
2024/01/30 01:10:11;;;;;;;6.43;0.90;;;;;;;;;;5020600;28;20090;-43
2024/01/30 01:12:39;;;;;;;4.90;0.98;;;;;;;;;;5020777;28;20625;-44
2024/01/30 01:15:09;;;;;;;9.52;1.50;;;;;;;;;;5007425;28;20045;-41
2024/01/30 01:17:37;;;;;;;7.53;1.00;;;;;;;;;;5023143;28;20120;-43
2024/01/30 01:20:06;;;;;;;5.38;0.70;;;;;;;;;;5031649;28;20403;-41
2024/01/30 01:22:35;;;;;;;7.90;0.80;;;;;;;;;;5007772;28;20037;-42
2024/01/30 01:25:03;;;;;;;9.05;0.75;;;;;;;;;;5032339;28;20164;-41
2024/01/30 01:27:32;;;;;;;4.13;0.47;;;;;;;;;;4957578;28;20064;-41
2024/01/30 01:30:00;;;;;;;8.35;0.90;;;;;;;;;;4937590;28;20041;-41
2024/01/30 01:32:29;;;;;;;7.38;0.70;;;;;;;;;;5030286;28;20040;-41
2024/01/30 01:34:56;;;;;;;7.67;1.07;;;;;;;;;;5018385;28;20962;-42
2024/01/30 01:37:26;;;;;;;6.18;0.70;;;;;;;;;;5029985;28;20098;-41
2024/01/30 01:39:55;;;;;;;5.30;1.23;;;;;;;;;;5011675;28;20123;-43
2024/01/30 01:42:23;;;;;;;5.05;1.00;;;;;;;;;;5030249;28;20048;-42
2024/01/30 01:45:10;;;;;;;5.32;1.08;;;;;;;;;;5022473;28;20123;-42
2024/01/30 01:47:38;;;;;;;5.23;1.27;;;;;;;;;;5021840;28;20052;-41
2024/01/30 01:50:06;;;;;;;7.15;1.13;;;;;;;;;;5013317;28;20048;-41
2024/01/30 01:52:34;;;;;;;7.50;1.10;;;;;;;;;;5014041;28;20031;-41
2024/01/30 01:55:04;;;;;;;5.15;1.35;;;;;;;;;;5018146;28;20051;-41
2024/01/30 01:57:32;;;;;;;6.32;1.25;;;;;;;;;;5016457;28;20574;-41
2024/01/30 01:59:59;;;;;;;8.93;1.43;;;;;;;;;;5026847;28;20593;-41
2024/01/30 02:02:30;;;;;;;7.10;1.45;;;;;;;;;;5019330;28;20052;-41
2024/01/30 02:04:57;;;;;;;5.65;1.45;;;;;;;;;;4994160;28;20047;-41
2024/01/30 02:07:25;;;;;;;4.85;1.00;;;;;;;;;;5034805;28;20059;-42
2024/01/30 02:09:53;;;;;;;5.15;1.20;;;;;;;;;;5028517;28;21787;-41
2024/01/30 02:12:22;;;;;;;6.40;1.47;;;;;;;;;;5016453;28;20032;-41
2024/01/30 02:14:51;;;;;;;6.50;1.02;;;;;;;;;;5027935;28;20482;-41
2024/01/30 02:17:19;;;;;;;6.60;1.27;;;;;;;;;;5010337;28;21591;-42
2024/01/30 02:19:47;;;;;;;7.25;1.25;;;;;;;;;;5037833;28;20496;-41
2024/01/30 02:22:18;;;;;;;4.28;1.10;;;;;;;;;;5059575;28;20065;-42
2024/01/30 02:24:46;;;;;;;4.80;0.90;;;;;;;;;;4997860;28;20090;-42
2024/01/30 02:27:13;;;;;;;4.00;0.88;;;;;;;;;;4921451;28;20040;-42
2024/01/30 02:29:42;;;;;;;3.85;0.90;;;;;;;;;;4931541;28;20078;-42
2024/01/30 02:32:09;;;;;;;3.83;0.80;;;;;;;;;;5022238;28;20834;-41
2024/01/30 02:34:37;;;;;;;5.47;0.80;;;;;;;;;;5020186;28;20055;-42
2024/01/30 02:37:05;;;;;;;3.47;0.60;;;;;;;;;;5027018;28;20040;-42
2024/01/30 02:39:36;;;;;;;5.43;1.50;;;;;;;;;;5018141;28;20072;-42
2024/01/30 02:42:03;;;;;;;4.47;0.88;;;;;;;;;;5020836;28;20036;-41
2024/01/30 02:44:31;;;;;;;6.72;1.42;;;;;;;;;;5014888;28;20052;-42
2024/01/30 02:46:59;;;;;;;5.93;1.13;;;;;;;;;;5036294;28;20404;-41
2024/01/30 02:49:26;;;;;;;4.43;0.87;;;;;;;;;;5050764;28;20387;-41
2024/01/30 02:51:54;;;;;;;6.63;1.50;;;;;;;;;;5033651;28;20047;-41
2024/01/30 02:54:22;;;;;;;7.32;1.40;;;;;;;;;;5027681;28;20052;-42
2024/01/30 02:56:51;;;;;;;7.25;1.95;;;;;;;;;;5027256;28;20041;-41
2024/01/30 02:59:19;;;;;;;9.30;2.65;;;;;;;;;;5014857;28;20441;-40
2024/01/30 03:01:47;;;;;;;7.67;2.17;;;;;;;;;;4995664;28;20483;-41
2024/01/30 03:04:16;;;;;;;8.23;2.03;;;;;;;;;;5032580;28;20517;-40
2024/01/30 03:06:45;;;;;;;9.32;2.33;;;;;;;;;;5035815;28;20037;-42
2024/01/30 03:09:17;;;;;;;8.27;2.50;;;;;;;;;;5031408;28;20032;-41
2024/01/30 03:11:45;;;;;;;8.30;2.95;;;;;;;;;;5023120;28;20045;-43
2024/01/30 03:14:14;;;;;;;9.00;3.10;;;;;;;;;;5020701;28;20136;-42
2024/01/30 03:16:42;;;;;;;8.93;3.30;;;;;;;;;;5040452;28;20370;-43
2024/01/30 03:19:10;;;;;;;8.73;3.58;;;;;;;;;;4984280;28;20060;-43
2024/01/30 03:21:38;;;;;;;9.18;3.85;;;;;;;;;;5023477;28;20098;-41
2024/01/30 03:24:06;;;;;;;8.77;3.88;;;;;;;;;;5013192;28;20094;-42
2024/01/30 03:26:42;;;;;;;8.07;3.70;;;;;;;;;;5007143;28;20043;-41
2024/01/30 03:29:11;;;;;;;10.98;3.60;;;;;;;;;;4959753;28;20044;-41
2024/01/30 03:31:41;;;;;;;7.03;3.28;;;;;;;;;;5029302;28;20047;-45
2024/01/30 03:34:09;;;;;;;7.22;3.38;;;;;;;;;;5020548;28;20040;-42
2024/01/30 03:36:37;;;;;;;9.02;4.15;;;;;;;;;;5039580;28;20541;-42
2024/01/30 03:39:06;;;;;;;8.17;3.17;;;;;;;;;;5028090;28;20040;-40
2024/01/30 03:41:33;;;;;;;9.75;2.92;;;;;;;;;;5019052;28;20041;-41
2024/01/30 03:44:01;;;;;;;9.30;3.58;;;;;;;;;;5014701;28;20295;-43
2024/01/30 03:46:29;;;;;;;7.43;3.00;;;;;;;;;;5029133;28;21547;-42
2024/01/30 03:48:58;;;;;;;6.50;2.17;;;;;;;;;;5026525;28;20139;-47
2024/01/30 03:51:26;;;;;;;6.70;1.87;;;;;;;;;;5034350;28;20119;-41
2024/01/30 03:53:53;;;;;;;6.65;1.60;;;;;;;;;;5030294;28;20036;-41
2024/01/30 03:56:21;;;;;;;7.13;1.80;;;;;;;;;;5021680;28;20051;-40
2024/01/30 03:58:49;;;;;;;5.38;1.40;;;;;;;;;;5026857;28;20149;-41
2024/01/30 04:01:17;;;;;;;3.58;0.90;;;;;;;;;;5012787;28;20139;-42
2024/01/30 04:03:44;;;;;;;3.70;0.80;;;;;;;;;;5065251;28;20044;-42
2024/01/30 04:06:17;;;;;;;3.08;0.77;;;;;;;;;;5064294;28;20097;-41
2024/01/30 04:08:49;;;;;;;4.45;0.60;;;;;;;;;;5027636;28;20590;-42
2024/01/30 04:11:20;;;;;;;2.97;0.52;;;;;;;;;;5040075;28;20037;-41
2024/01/30 04:13:49;;;;;;;2.85;0.35;;;;;;;;;;5025596;28;20033;-41
2024/01/30 04:16:20;;;;;;;1.93;0.27;;;;;;;;;;5045442;28;20081;-42
2024/01/30 04:18:48;;;;;;;2.50;0.38;;;;;;;;;;5017027;28;20131;-42
2024/01/30 04:21:18;;;;;;;2.10;0.30;;;;;;;;;;5044747;28;20048;-41
2024/01/30 04:23:46;;;;;;;1.60;0.20;;;;;;;;;;5007171;28;20914;-42
2024/01/30 04:26:13;;;;;;;2.13;0.20;;;;;;;;;;5041981;28;20951;-41
2024/01/30 04:28:42;;;;;;;1.97;0.57;;;;;;;;;;4885071;28;20036;-41
2024/01/30 04:31:10;;;;;;;2.50;0.47;;;;;;;;;;5035284;28;20036;-42
2024/01/30 04:33:37;;;;;;;2.05;0.30;;;;;;;;;;5010392;28;20407;-43
2024/01/30 04:36:06;;;;;;;1.63;0.20;;;;;;;;;;5015583;28;24134;-40
2024/01/30 04:38:35;;;;;;;2.00;0.30;;;;;;;;;;5031362;28;20605;-41
2024/01/30 04:41:04;;;;;;;2.17;0.33;;;;;;;;;;4999778;28;20767;-41
2024/01/30 04:43:31;;;;;;;3.28;0.32;;;;;;;;;;5042629;28;20498;-43
2024/01/30 04:45:59;;;;;;;2.33;0.40;;;;;;;;;;5024123;28;20638;-41
2024/01/30 04:48:27;;;;;;;2.25;0.40;;;;;;;;;;5044539;28;20052;-41
2024/01/30 04:50:55;;;;;;;2.42;0.40;;;;;;;;;;5012549;28;20048;-42
2024/01/30 04:53:23;;;;;;;2.30;0.50;;;;;;;;;;5015236;28;20645;-41
2024/01/30 04:55:52;;;;;;;2.83;0.55;;;;;;;;;;5032691;28;20380;-41
2024/01/30 04:58:20;;;;;;;3.13;0.57;;;;;;;;;;5006661;28;20060;-40
2024/01/30 05:00:51;;;;;;;2.67;0.30;;;;;;;;;;5032680;28;20032;-41
2024/01/30 05:03:20;;;;;;;2.58;0.40;;;;;;;;;;5025067;28;20483;-41
2024/01/30 05:05:50;;;;;;;2.50;0.50;;;;;;;;;;5041159;28;20481;-42
2024/01/30 05:08:19;;;;;;;2.00;0.30;;;;;;;;;;5015420;28;21055;-41
2024/01/30 05:10:47;;;;;;;2.35;0.40;;;;;;;;;;5036191;28;20044;-40
2024/01/30 05:13:18;;;;;;;2.70;0.35;;;;;;;;;;5030443;28;20450;-41
2024/01/30 05:15:46;;;;;;;2.60;0.50;;;;;;;;;;5024722;28;20067;-41
2024/01/30 05:18:14;;;;;;;4.17;0.50;;;;;;;;;;5025742;28;20494;-41
2024/01/30 05:20:42;;;;;;;1.30;0.20;;;;;;;;;;5004121;28;20550;-42
2024/01/30 05:23:15;;;;;;;1.75;0.30;;;;;;;;;;5032382;28;20450;-44
2024/01/30 05:25:43;;;;;;;1.70;0.20;;;;;;;;;;5014174;28;20035;-41
2024/01/30 05:28:11;;;;;;;2.60;0.20;;;;;;;;;;4887443;28;20048;-42
2024/01/30 05:30:43;;;;;;;1.53;0.20;;;;;;;;;;5038804;28;20060;-41
2024/01/30 05:33:13;;;;;;;2.05;0.20;;;;;;;;;;5041502;28;20130;-41
2024/01/30 05:35:42;;;;;;;1.17;0.10;;;;;;;;;;5026929;28;20045;-42
2024/01/30 05:38:12;;;;;;;1.27;0.15;;;;;;;;;;5029607;28;20068;-41
2024/01/30 05:40:40;;;;;;;3.03;0.32;;;;;;;;;;5011142;28;20041;-40
2024/01/30 05:43:08;;;;;;;1.47;0.20;;;;;;;;;;5016944;28;20589;-43
2024/01/30 05:45:36;;;;;;;1.77;0.20;;;;;;;;;;5009974;28;20041;-41
2024/01/30 05:48:06;;;;;;;2.00;0.20;;;;;;;;;;5009971;28;20063;-42
2024/01/30 05:50:33;;;;;;;1.67;0.20;;;;;;;;;;5000059;28;20762;-42
2024/01/30 05:53:01;;;;;;;2.17;0.20;;;;;;;;;;4999875;28;20076;-41
2024/01/30 05:55:29;;;;;;;1.80;0.20;;;;;;;;;;4999427;28;20102;-41
2024/01/30 05:57:58;;;;;;;3.00;0.40;;;;;;;;;;5019144;28;20120;-42
2024/01/30 06:00:26;;;;;;;2.47;0.20;;;;;;;;;;5009056;28;20044;-43
2024/01/30 06:02:56;;;;;;;1.40;0.20;;;;;;;;;;5007630;28;20041;-41
2024/01/30 06:05:25;;;;;;;1.33;0.20;;;;;;;;;;5011749;28;20043;-41
2024/01/30 06:07:53;;;;;;;1.60;0.20;;;;;;;;;;5015911;28;20051;-42
2024/01/30 06:10:21;;;;;;;1.73;0.20;;;;;;;;;;5024722;28;20033;-44
2024/01/30 06:12:49;;;;;;;2.47;0.32;;;;;;;;;;5011139;28;20068;-43
2024/01/30 06:15:17;;;;;;;4.25;0.20;;;;;;;;;;5019953;28;20052;-42
2024/01/30 06:17:45;;;;;;;1.77;0.25;;;;;;;;;;5034433;28;20056;-44
2024/01/30 06:20:13;;;;;;;2.03;0.20;;;;;;;;;;5004607;28;20036;-42
2024/01/30 06:22:43;;;;;;;2.22;0.20;;;;;;;;;;5030376;28;20569;-42
2024/01/30 06:25:12;;;;;;;3.05;0.40;;;;;;;;;;5015920;28;20049;-42
2024/01/30 06:27:40;;;;;;;1.95;0.20;;;;;;;;;;4899479;28;20692;-42
2024/01/30 06:30:14;;;;;;;1.50;0.20;;;;;;;;;;5025270;28;20130;-42
2024/01/30 06:32:46;;;;;;;2.23;0.30;;;;;;;;;;5025803;28;20077;-42
2024/01/30 06:35:14;;;;;;;2.30;0.30;;;;;;;;;;5025383;28;20074;-42
2024/01/30 06:37:43;;;;;;;1.50;0.30;;;;;;;;;;5019895;28;20052;-42
2024/01/30 06:40:11;;;;;;;3.90;0.40;;;;;;;;;;5004970;28;20094;-41
2024/01/30 06:42:39;;;;;;;3.25;0.50;;;;;;;;;;5028012;28;20336;-43
2024/01/30 06:45:08;;;;;;;1.63;0.20;;;;;;;;;;5003996;28;20652;-41
2024/01/30 06:47:36;;;;;;;2.20;0.30;;;;;;;;;;5011982;28;20044;-41
2024/01/30 06:50:05;;;;;;;2.05;0.30;;;;;;;;;;5027516;28;20111;-41
2024/01/30 06:52:33;;;;;;;2.97;0.50;;;;;;;;;;5004078;28;20045;-44
2024/01/30 06:55:04;;;;;;;2.58;0.30;;;;;;;;;;5013715;28;20102;-41
2024/01/30 06:57:32;;;;;;;2.40;0.27;;;;;;;;;;5017811;28;20115;-42
2024/01/30 07:00:00;;;;;;;2.65;0.75;;;;;;;;;;5014204;28;20047;-42
2024/01/30 07:02:27;;;;;;;1.85;0.17;;;;;;;;;;4961112;28;20241;-42
2024/01/30 07:04:55;;;;;;;1.85;0.10;;;;;;;;;;5007145;28;20147;-41
2024/01/30 07:07:23;;;;;;;1.67;0.20;;;;;;;;;;5032558;28;20044;-41
2024/01/30 07:09:56;;;;;;;1.90;0.23;;;;;;;;;;5015335;28;21077;-42
2024/01/30 07:12:25;;;;;;;1.52;0.10;;;;;;;;;;5023405;28;20504;-43
2024/01/30 07:14:56;;;;;;;2.78;0.20;;;;;;;;;;5024162;28;20068;-42
2024/01/30 07:17:24;;;;;;;2.42;0.20;;;;;;;;;;5024272;28;20498;-41
2024/01/30 07:19:51;;;;;;;2.05;0.28;;;;;;;;;;5021213;28;20056;-44
2024/01/30 07:22:19;;;;;;;2.77;0.30;;;;;;;;;;5010009;28;20033;-41
2024/01/30 07:24:49;;;;;;;1.80;0.30;;;;;;;;;;5012093;28;20044;-43
2024/01/30 07:27:17;;;;;;;2.53;0.30;;;;;;;;;;4921668;28;20043;-41
2024/01/30 07:29:47;;;;;;;2.97;0.20;;;;;;;;;;4974547;28;20041;-42
2024/01/30 07:32:18;;;;;;;2.47;0.20;;;;;;;;;;5028788;28;20052;-42
2024/01/30 07:34:48;;;;;;;1.97;0.33;;;;;;;;;;4998945;28;20582;-41
2024/01/30 07:37:33;;;;;;;2.03;0.20;;;;;;;;;;5011460;28;20115;-42
2024/01/30 07:40:02;;;;;;;2.22;0.30;;;;;;;;;;5001700;28;20056;-40
2024/01/30 07:42:30;;;;;;;3.53;0.30;;;;;;;;;;5052413;28;20072;-41
2024/01/30 07:44:59;;;;;;;2.03;0.25;;;;;;;;;;5015267;28;20342;-41
2024/01/30 07:47:27;;;;;;;2.50;0.20;;;;;;;;;;5042075;28;20059;-42
2024/01/30 07:49:55;;;;;;;2.03;0.20;;;;;;;;;;5014720;28;20087;-41
2024/01/30 07:52:22;;;;;;;2.08;0.30;;;;;;;;;;5035811;28;20040;-41
2024/01/30 07:54:50;;;;;;;2.65;0.20;;;;;;;;;;5025887;28;20052;-43
2024/01/30 07:57:18;;;;;;;2.55;0.40;;;;;;;;;;5039877;28;20502;-41
2024/01/30 07:59:46;;;;;;;1.27;0.27;;;;;;;;;;5020798;28;20041;-41
2024/01/30 08:02:16;;;;;;;2.42;0.25;;;;;;;;;;5022686;28;20350;-41
2024/01/30 08:04:43;;;;;;;1.85;0.20;;;;;;;;;;5021356;28;20052;-42
2024/01/30 08:07:11;;;;;;;1.88;0.20;;;;;;;;;;5023953;28;20128;-41
2024/01/30 08:09:41;;;;;;;3.03;0.38;;;;;;;;;;5030934;28;20440;-41
2024/01/30 08:12:09;;;;;;;1.50;0.20;;;;;;;;;;4323998;28;10000876;-42
2024/01/30 08:14:36;;;;;;;3.10;0.30;;;;;;;;;;5027436;28;20340;-41
2024/01/30 08:17:04;;;;;;;3.88;0.30;;;;;;;;;;5011303;28;20600;-41
2024/01/30 08:19:34;;;;;;;3.28;0.40;;;;;;;;;;5026961;28;20040;-41
2024/01/30 08:22:01;;;;;;;2.70;0.40;;;;;;;;;;5012469;28;23250;-43
2024/01/30 08:24:29;;;;;;;3.35;0.30;;;;;;;;;;5021380;28;20072;-42
2024/01/30 08:26:58;;;;;;;3.83;0.33;;;;;;;;;;4575589;28;9999688;-42
2024/01/30 08:29:26;;;;;;;2.92;0.30;;;;;;;;;;4891711;28;20485;-41
2024/01/30 08:31:55;;;;;;;3.80;0.57;;;;;;;;;;5008227;28;20052;-42
2024/01/30 08:34:23;;;;;;;3.15;0.60;;;;;;;;;;5017396;28;20483;-41
2024/01/30 08:36:52;;;;;;;3.95;0.52;;;;;;;;;;5004950;28;20123;-41
2024/01/30 08:39:20;;;;;;;3.70;0.50;;;;;;;;;;5013551;28;20066;-40
2024/01/30 08:41:48;;;;;;;4.20;0.80;;;;;;;;;;5002916;28;20044;-42
2024/01/30 08:44:15;;;;;;;6.93;1.30;;;;;;;;;;5023975;28;21289;-41
2024/01/30 08:46:44;;;;;;;5.18;1.25;;;;;;;;;;5005303;28;20178;-42
2024/01/30 08:49:14;;;;;;;3.80;0.77;;;;;;;;;;5019750;28;20134;-42
2024/01/30 08:51:42;;;;;;;5.10;1.00;;;;;;;;;;5013410;28;20037;-41
2024/01/30 08:54:12;;;;;;;4.25;0.80;;;;;;;;;;5015911;28;20146;-41
2024/01/30 08:56:39;;;;;;;6.68;1.00;;;;;;;;;;5022186;28;20041;-42
2024/01/30 08:59:07;;;;;;;5.82;0.90;;;;;;;;;;5000081;28;20041;-43
2024/01/30 09:01:37;;;;;;;10.40;1.38;;;;;;;;;;5017364;28;20048;-41
2024/01/30 09:04:07;;;;;;;7.47;0.80;;;;;;;;;;5010782;28;20056;-41
2024/01/30 09:06:34;;;;;;;4.53;1.20;;;;;;;;;;5019229;28;20040;-41
2024/01/30 09:09:02;;;;;;;10.15;1.55;;;;;;;;;;4998349;28;20051;-41
2024/01/30 09:11:32;;;;;;;5.95;1.17;;;;;;;;;;5020995;28;20067;-41
2024/01/30 09:13:59;;;;;;;5.60;1.23;;;;;;;;;;5018898;28;20053;-42
2024/01/30 09:16:46;;;;;;;6.70;1.40;;;;;;;;;;5020472;28;20087;-43
2024/01/30 09:19:13;;;;;;;9.00;1.10;;;;;;;;;;5007135;28;20150;-41
2024/01/30 09:21:42;;;;;;;5.47;1.10;;;;;;;;;;5018472;28;20045;-41
2024/01/30 09:24:10;;;;;;;10.75;1.23;;;;;;;;;;5010357;28;20049;-41
2024/01/30 09:26:51;;;;;;;4.35;1.20;;;;;;;;;;4973681;28;20044;-42
2024/01/30 09:29:19;;;;;;;6.53;1.07;;;;;;;;;;4948618;28;20052;-41
2024/01/30 09:31:49;;;;;;;6.25;1.38;;;;;;;;;;5015275;28;21064;-41
2024/01/30 09:34:17;;;;;;;5.88;1.13;;;;;;;;;;5027482;28;20044;-42
2024/01/30 09:36:45;;;;;;;7.22;1.38;;;;;;;;;;5011958;28;20681;-41
2024/01/30 09:39:14;;;;;;;5.63;1.02;;;;;;;;;;5031460;28;20048;-41
2024/01/30 09:41:46;;;;;;;4.30;0.67;;;;;;;;;;5028673;28;20093;-41
2024/01/30 09:44:17;;;;;;;7.53;0.95;;;;;;;;;;5049462;28;20569;-41
2024/01/30 09:46:47;;;;;;;7.07;0.70;;;;;;;;;;5028047;28;20043;-41
2024/01/30 09:49:17;;;;;;;5.60;0.77;;;;;;;;;;5044571;28;20464;-41
2024/01/30 09:51:49;;;;;;;4.32;0.68;;;;;;;;;;5023256;28;20032;-42
2024/01/30 09:54:17;;;;;;;4.03;0.67;;;;;;;;;;5044318;28;20049;-42
2024/01/30 09:56:45;;;;;;;3.92;0.55;;;;;;;;;;5033482;28;20040;-41
2024/01/30 09:59:13;;;;;;;4.72;0.80;;;;;;;;;;5038647;28;20051;-41
2024/01/30 10:02:00;;;;;;;4.45;0.70;;;;;;;;;;5038737;28;20045;-41
2024/01/30 10:04:28;;;;;;;7.03;0.52;;;;;;;;;;5033781;28;20533;-41
2024/01/30 10:06:55;;;;;;;4.20;0.50;;;;;;;;;;5029215;28;20037;-41
2024/01/30 10:09:23;;;;;;;4.57;0.82;;;;;;;;;;5030084;28;20557;-40
2024/01/30 10:11:52;;;;;;;5.93;0.68;;;;;;;;;;5040229;28;20040;-41
2024/01/30 10:14:19;;;;;;;4.88;0.70;;;;;;;;;;5032052;28;20037;-41
2024/01/30 10:16:47;;;;;;;4.55;0.60;;;;;;;;;;5033334;28;20135;-41
2024/01/30 10:19:17;;;;;;;3.20;0.60;;;;;;;;;;5026701;28;20048;-41
2024/01/30 10:21:50;;;;;;;3.25;0.50;;;;;;;;;;5026904;28;20741;-41
2024/01/30 10:24:17;;;;;;;5.03;0.40;;;;;;;;;;5031727;28;20304;-40
2024/01/30 10:26:48;;;;;;;3.83;0.35;;;;;;;;;;4930578;28;20036;-43
2024/01/30 10:29:16;;;;;;;4.00;0.60;;;;;;;;;;4274015;28;10000589;-44
2024/01/30 10:31:43;;;;;;;4.13;0.50;;;;;;;;;;5028302;28;20048;-43
2024/01/30 10:34:11;;;;;;;2.30;0.30;;;;;;;;;;5025145;28;20051;-42
2024/01/30 10:36:51;;;;;;;2.63;0.40;;;;;;;;;;5035704;28;20040;-43
2024/01/30 10:39:20;;;;;;;2.05;0.22;;;;;;;;;;5028060;28;20080;-42
2024/01/30 10:41:49;;;;;;;3.28;0.30;;;;;;;;;;5024889;28;20044;-42
2024/01/30 10:44:19;;;;;;;2.92;0.50;;;;;;;;;;5036153;28;20033;-41
2024/01/30 10:46:51;;;;;;;5.30;0.33;;;;;;;;;;5021821;28;20733;-40
2024/01/30 10:49:20;;;;;;;2.13;0.30;;;;;;;;;;5034357;28;20194;-41
2024/01/30 10:51:48;;;;;;;4.65;0.50;;;;;;;;;;5024815;28;20036;-41
2024/01/30 10:54:19;;;;;;;4.38;0.60;;;;;;;;;;5044942;28;20140;-41
2024/01/30 10:56:47;;;;;;;3.35;0.50;;;;;;;;;;5027730;28;20051;-41
2024/01/30 10:59:16;;;;;;;4.60;1.10;;;;;;;;;;4991933;28;20253;-42
2024/01/30 11:01:43;;;;;;;4.05;0.55;;;;;;;;;;5015845;28;20495;-41
2024/01/30 11:04:11;;;;;;;4.75;0.70;;;;;;;;;;5018725;28;20496;-42
2024/01/30 11:06:41;;;;;;;3.97;0.75;;;;;;;;;;5007840;28;20135;-42
2024/01/30 11:09:13;;;;;;;7.75;1.00;;;;;;;;;;4996731;28;20629;-41
2024/01/30 11:11:59;;;;;;;3.03;0.40;;;;;;;;;;5012927;28;20654;-40
2024/01/30 11:14:27;;;;;;;4.80;0.95;;;;;;;;;;5017206;28;20048;-41
2024/01/30 11:17:00;;;;;;;6.05;0.90;;;;;;;;;;5017271;28;20044;-40
2024/01/30 11:19:31;;;;;;;6.03;1.13;;;;;;;;;;5015227;28;20063;-41
2024/01/30 11:22:00;;;;;;;6.00;1.40;;;;;;;;;;5011407;28;20459;-42
2024/01/30 11:24:28;;;;;;;4.97;0.90;;;;;;;;;;5012074;28;20051;-41
2024/01/30 11:26:58;;;;;;;4.53;0.75;;;;;;;;;;4902576;28;36885;-42
2024/01/30 11:29:26;;;;;;;2.40;0.30;;;;;;;;;;4929947;28;20044;-42
2024/01/30 11:31:54;;;;;;;2.92;0.32;;;;;;;;;;5011517;28;21068;-43
2024/01/30 11:34:22;;;;;;;2.45;0.35;;;;;;;;;;5010646;28;20048;-40
2024/01/30 11:36:55;;;;;;;2.50;0.30;;;;;;;;;;4996618;28;20090;-42
2024/01/30 11:39:23;;;;;;;2.20;0.30;;;;;;;;;;4986552;28;20041;-40
2024/01/30 11:41:51;;;;;;;1.80;0.20;;;;;;;;;;5013258;28;20040;-43
2024/01/30 11:44:21;;;;;;;2.38;0.30;;;;;;;;;;5018627;28;20215;-41
2024/01/30 11:46:49;;;;;;;4.70;0.40;;;;;;;;;;5015269;28;20047;-41
2024/01/30 11:49:17;;;;;;;2.37;0.33;;;;;;;;;;5012152;28;20045;-43
2024/01/30 11:51:48;;;;;;;2.60;0.30;;;;;;;;;;5009741;28;20558;-42
2024/01/30 11:54:17;;;;;;;1.90;0.28;;;;;;;;;;5016349;28;20048;-41
2024/01/30 11:56:45;;;;;;;2.42;0.40;;;;;;;;;;5015458;28;20509;-42
2024/01/30 11:59:13;;;;;;;1.90;0.40;;;;;;;;;;5010897;28;20497;-41
2024/01/30 12:01:42;;;;;;;4.80;0.40;;;;;;;;;;5010188;28;20044;-41
2024/01/30 12:04:10;;;;;;;1.98;0.22;;;;;;;;;;5001556;28;20431;-41
2024/01/30 12:06:39;;;;;;;2.15;0.40;;;;;;;;;;5013011;28;20893;-41
2024/01/30 12:09:08;;;;;;;3.47;0.30;;;;;;;;;;4662333;28;10000201;-41
2024/01/30 12:11:44;;;;;;;3.47;0.40;;;;;;;;;;5002846;28;20799;-41
2024/01/30 12:14:12;;;;;;;2.53;0.30;;;;;;;;;;4998446;28;21046;-41
2024/01/30 12:16:42;;;;;;;1.65;0.20;;;;;;;;;;5043660;28;20056;-41
2024/01/30 12:19:10;;;;;;;2.75;0.38;;;;;;;;;;4998195;28;20491;-42
2024/01/30 12:21:39;;;;;;;2.17;0.40;;;;;;;;;;5007312;28;20045;-41
2024/01/30 12:24:08;;;;;;;2.30;0.30;;;;;;;;;;5005374;28;20117;-41
2024/01/30 12:26:51;;;;;;;1.65;0.20;;;;;;;;;;4996212;28;20522;-40
2024/01/30 12:29:21;;;;;;;2.35;0.40;;;;;;;;;;4932296;28;20040;-42
2024/01/30 12:31:53;;;;;;;3.55;0.70;;;;;;;;;;5005633;28;20241;-41
2024/01/30 12:34:21;;;;;;;3.05;0.20;;;;;;;;;;5009107;28;23065;-41
2024/01/30 12:36:50;;;;;;;2.47;0.30;;;;;;;;;;4998433;28;20051;-41
2024/01/30 12:39:18;;;;;;;2.03;0.32;;;;;;;;;;5013656;28;20051;-41
2024/01/30 12:41:46;;;;;;;2.30;0.40;;;;;;;;;;5000657;28;20035;-41
2024/01/30 12:44:14;;;;;;;3.33;0.60;;;;;;;;;;5007780;28;20055;-41
2024/01/30 12:46:42;;;;;;;4.90;0.60;;;;;;;;;;5004726;28;20554;-41
2024/01/30 12:49:13;;;;;;;2.60;0.30;;;;;;;;;;4312656;28;10000771;-44
2024/01/30 12:51:42;;;;;;;3.67;0.40;;;;;;;;;;5009164;28;20032;-42
2024/01/30 12:54:11;;;;;;;2.55;0.57;;;;;;;;;;5012420;28;20040;-42
2024/01/30 12:56:38;;;;;;;2.70;0.32;;;;;;;;;;5017016;28;20053;-42
2024/01/30 12:59:06;;;;;;;3.92;0.40;;;;;;;;;;5007302;28;20147;-41
2024/01/30 13:01:34;;;;;;;3.40;0.40;;;;;;;;;;5013659;28;20040;-40
2024/01/30 13:04:03;;;;;;;4.63;0.60;;;;;;;;;;5011443;28;20044;-44
2024/01/30 13:06:33;;;;;;;3.58;0.73;;;;;;;;;;5024746;28;20043;-42
2024/01/30 13:09:00;;;;;;;5.03;0.80;;;;;;;;;;5008121;28;20373;-41
2024/01/30 13:11:29;;;;;;;3.50;0.45;;;;;;;;;;5010583;28;20059;-41
2024/01/30 13:13:57;;;;;;;2.83;0.50;;;;;;;;;;5022974;28;20537;-42
2024/01/30 13:16:26;;;;;;;3.03;0.50;;;;;;;;;;5008627;28;20084;-42
2024/01/30 13:18:55;;;;;;;2.58;0.35;;;;;;;;;;5006294;28;20727;-42
2024/01/30 13:21:23;;;;;;;1.88;0.30;;;;;;;;;;5011924;28;20037;-45
2024/01/30 13:23:53;;;;;;;1.92;0.20;;;;;;;;;;5014979;28;20590;-41
2024/01/30 13:26:22;;;;;;;2.30;0.33;;;;;;;;;;4998628;28;20125;-40
2024/01/30 13:28:49;;;;;;;2.13;0.40;;;;;;;;;;4820162;28;20036;-43
2024/01/30 13:31:19;;;;;;;4.22;0.50;;;;;;;;;;5016920;28;20044;-41
2024/01/30 13:33:47;;;;;;;3.13;0.60;;;;;;;;;;5018150;28;20063;-42
2024/01/30 13:36:15;;;;;;;2.45;0.32;;;;;;;;;;5010344;28;20040;-41
2024/01/30 13:38:44;;;;;;;2.07;0.37;;;;;;;;;;4999473;28;20314;-41
2024/01/30 13:41:13;;;;;;;2.20;0.30;;;;;;;;;;5013903;28;20109;-43
2024/01/30 13:43:41;;;;;;;3.25;0.32;;;;;;;;;;5008279;28;20044;-41
2024/01/30 13:46:09;;;;;;;3.00;0.40;;;;;;;;;;5010141;28;20059;-43
2024/01/30 13:48:37;;;;;;;2.50;0.40;;;;;;;;;;5019808;28;21328;-41
2024/01/30 13:51:05;;;;;;;2.93;0.43;;;;;;;;;;5017472;28;20044;-42
2024/01/30 13:53:34;;;;;;;3.45;0.43;;;;;;;;;;5018933;28;20041;-43
2024/01/30 13:56:01;;;;;;;3.20;0.50;;;;;;;;;;5013024;28;20986;-41
2024/01/30 13:58:33;;;;;;;2.08;0.30;;;;;;;;;;5018202;28;20059;-42
2024/01/30 14:01:01;;;;;;;2.13;0.30;;;;;;;;;;5013003;28;20131;-43
2024/01/30 14:03:29;;;;;;;6.03;0.50;;;;;;;;;;5023111;28;20057;-41
2024/01/30 14:05:57;;;;;;;2.65;0.40;;;;;;;;;;4976978;28;20323;-41
2024/01/30 14:08:27;;;;;;;2.30;0.40;;;;;;;;;;4993921;28;20040;-41
2024/01/30 14:10:56;;;;;;;3.85;0.47;;;;;;;;;;5021504;28;20044;-41
2024/01/30 14:13:24;;;;;;;3.78;0.40;;;;;;;;;;5013572;28;21172;-43
2024/01/30 14:15:54;;;;;;;2.80;0.50;;;;;;;;;;5016223;28;20052;-43
2024/01/30 14:18:22;;;;;;;2.95;0.40;;;;;;;;;;5009713;28;20578;-42
2024/01/30 14:20:49;;;;;;;1.73;0.28;;;;;;;;;;5018012;28;20076;-42
2024/01/30 14:23:18;;;;;;;3.08;0.20;;;;;;;;;;5005618;28;20040;-41
2024/01/30 14:25:46;;;;;;;1.60;0.20;;;;;;;;;;5015374;28;20044;-41
2024/01/30 14:28:14;;;;;;;2.57;0.40;;;;;;;;;;4811646;28;20127;-41
2024/01/30 14:30:42;;;;;;;2.65;0.40;;;;;;;;;;5002988;28;20064;-40
2024/01/30 14:33:13;;;;;;;2.90;0.82;;;;;;;;;;5031572;28;20044;-43
2024/01/30 14:35:42;;;;;;;2.33;0.30;;;;;;;;;;5030580;28;20042;-40
2024/01/30 14:38:10;;;;;;;2.15;0.22;;;;;;;;;;5004720;28;20044;-41
2024/01/30 14:40:39;;;;;;;2.10;0.20;;;;;;;;;;5012303;28;20300;-41
2024/01/30 14:43:07;;;;;;;1.77;0.35;;;;;;;;;;5056758;28;20049;-41
2024/01/30 14:45:35;;;;;;;3.92;0.45;;;;;;;;;;5006316;28;20051;-41
2024/01/30 14:48:03;;;;;;;3.08;0.40;;;;;;;;;;5034884;28;20039;-42
2024/01/30 14:50:32;;;;;;;2.34;0.40;;;;;;;;;;4667205;28;10000993;-43
2024/01/30 14:53:00;;;;;;;4.20;0.60;;;;;;;;;;5034560;28;20036;-41